Kinrooi, Belgium
Current Conditions -  °F | °C
As of 5:55 PM on Sunday 23 Nov 2014 (Local Time) from EBBL Reporting Station
Broken Clouds Broken Clouds  
Wind Chill: 52°   Ceiling: 13000
Heat Index: 52°   Visibility: NA
Dew Point: 48°   Wind: 1mph
Humidity: 88%   Direction: NA
Pressure: 29.94"   Gusts: NA
Location:  51.15°N, 5.74°E
Report Text: EBBL 231655Z AUTO VRB01KT //// SCT110/// BKN130/// 11/09 Q1014 BLU
Loading
Personal Weather Stations






























Interactive Weather Map New forecast layout! Learn more

10-Day Weather Forecast

Advertisements
Track Severe Weather on mobile